Alexis Creek, Canada
Current Conditions -  °F | °C
As of 1:00 PM on Thursday 23 Oct 2014 (Local Time) from CYWL Reporting Station
Broken Clouds Broken Clouds  
Wind Chill: 43°   Ceiling: 11000
Heat Index: 43°   Visibility: 15mi
Dew Point: 37°   Wind: 3mph
Humidity: 81%   Direction: 50°NE
Pressure: 29.63"   Gusts: NA
Location:  52.08°N, 123.28°W
Report Text: CYWL 232000Z 05003KT 010V080 15SM FEW030 BKN110 06/03 A2963 RMK CU1AC6 SLP052
Loading
Personal Weather Stations






























Interactive Weather Map
Tropical Storm Tracking
New forecast layout! Learn more

10-Day Weather Forecast

Advertisements
Track Severe Weather on mobile